Lakefield, Minnesota
Current Conditions -  °F | °C
As of 3:14 AM on Wednesday 22 Oct 2014 (Local Time) from KMJQ Reporting Station
Clear Clear  
Wind Chill: 39°   Ceiling: Unl
Heat Index: 45°   Visibility: 10mi
Dew Point: 37°   Wind: 12mph
Humidity: 76%   Direction: 150°SSE
Pressure: 30.12"   Gusts: NA
Location:  43.68°N, 95.17°W
Report Text: KMJQ 220814Z AUTO 15010KT 10SM CLR 07/03 A3012 RMK AO2
Loading
Personal Weather Stations






























Interactive Weather Map
Tropical Storm Tracking
New forecast layout! Learn more

10-Day Weather Forecast

Advertisements
Track Severe Weather on mobile